Terminal Aerodrome Forecast
Issued by NWS

Home | Current Version | Previous Version | Text Only | Print | Product List | Glossary Off
Versions: 1 2 3 4 5 6 7 8 9 10 11 12 13

000
FTUS43 KICT 122327
TAFSLN
TAF
KSLN 122327Z 1300/1324 20007KT P6SM SKC
     FM131000 26011KT P6SM SKC
     FM131400 30013KT P6SM SCT250
     FM131700 33022G30KT P6SM SCT250=

USA.gov is the U.S. government's official web portal to all federal, state and local government web resources and services.